Time;durP1;ratioP1;P1;durP2;ratioP2;P2;SDS_P1;SDS_P2;PMS_P1;PMS_P2;Temp;Humidity;BMP_temperature;BMP_pressure;BME280_temperature;BME280_humidity;BME280_pressure;Samples;Min_cycle;Max_cycle;Signal;HPM_P1;HPM_P2
2021/09/04 00:02:13;;;;;;;5.07;1.15;;;;;;;;;;5031200;28;20065;-78
2021/09/04 00:04:41;;;;;;;1.10;1.10;;;;;;;;;;5030047;28;20041;-78
2021/09/04 00:07:08;;;;;;;1.10;1.10;;;;;;;;;;5031173;28;20096;-78
2021/09/04 00:09:34;;;;;;;4.03;1.10;;;;;;;;;;5029381;28;20064;-78
2021/09/04 00:12:02;;;;;;;2.78;1.17;;;;;;;;;;5032257;28;20131;-78
2021/09/04 00:14:29;;;;;;;2.05;1.20;;;;;;;;;;5063373;28;20037;-78
2021/09/04 00:16:56;;;;;;;1.98;1.10;;;;;;;;;;5030525;28;20502;-78
2021/09/04 00:19:23;;;;;;;1.10;1.00;;;;;;;;;;5029554;28;20048;-78
2021/09/04 00:21:50;;;;;;;3.13;1.20;;;;;;;;;;5029760;28;20033;-78
2021/09/04 00:24:16;;;;;;;2.00;0.93;;;;;;;;;;5031077;28;20056;-78
2021/09/04 00:26:44;;;;;;;1.30;1.20;;;;;;;;;;5030367;28;20517;-78
2021/09/04 00:29:10;;;;;;;1.23;1.20;;;;;;;;;;5030372;28;20096;-78
2021/09/04 00:31:37;;;;;;;4.00;1.33;;;;;;;;;;5032607;28;20033;-78
2021/09/04 00:34:03;;;;;;;3.78;1.10;;;;;;;;;;5030073;28;20037;-78
2021/09/04 00:36:30;;;;;;;2.03;1.20;;;;;;;;;;5031539;28;20046;-78
2021/09/04 00:38:56;;;;;;;1.95;1.10;;;;;;;;;;5033553;28;20724;-78
2021/09/04 00:41:23;;;;;;;1.83;1.00;;;;;;;;;;5028647;28;20033;-78
2021/09/04 00:43:50;;;;;;;1.67;0.90;;;;;;;;;;5033222;28;20037;-78
2021/09/04 00:46:17;;;;;;;1.00;1.00;;;;;;;;;;5031265;28;20072;-78
2021/09/04 00:48:43;;;;;;;1.20;1.10;;;;;;;;;;5028691;28;20033;-78
2021/09/04 00:51:15;;;;;;;1.10;1.00;;;;;;;;;;5030956;28;20041;-78
2021/09/04 00:53:41;;;;;;;3.50;1.10;;;;;;;;;;5030747;28;20037;-78
2021/09/04 00:56:09;;;;;;;1.10;1.10;;;;;;;;;;5032506;28;20277;-78
2021/09/04 00:58:36;;;;;;;2.45;1.55;;;;;;;;;;5060017;28;20103;-78
2021/09/04 01:01:03;;;;;;;1.30;1.30;;;;;;;;;;5025794;28;20145;-78
2021/09/04 01:03:29;;;;;;;1.55;1.45;;;;;;;;;;5062316;28;20049;-78
2021/09/04 01:05:56;;;;;;;1.30;1.20;;;;;;;;;;5028782;28;20069;-78
2021/09/04 01:08:23;;;;;;;1.00;1.00;;;;;;;;;;5031593;28;20041;-78
2021/09/04 01:10:50;;;;;;;2.30;1.25;;;;;;;;;;5061600;28;20048;-78
2021/09/04 01:13:17;;;;;;;1.20;1.20;;;;;;;;;;5030763;28;20099;-78
2021/09/04 01:15:44;;;;;;;4.03;1.15;;;;;;;;;;5029794;28;20374;-78
2021/09/04 01:18:11;;;;;;;3.13;1.25;;;;;;;;;;5030473;28;20041;-78
2021/09/04 01:20:38;;;;;;;1.55;1.30;;;;;;;;;;5061317;28;20034;-78
2021/09/04 01:23:04;;;;;;;1.65;1.55;;;;;;;;;;5031888;28;20087;-78
2021/09/04 01:25:32;;;;;;;1.20;1.20;;;;;;;;;;5028026;28;20079;-78
2021/09/04 01:27:59;;;;;;;1.30;1.20;;;;;;;;;;5030777;28;20095;-78
2021/09/04 01:30:26;;;;;;;1.27;1.27;;;;;;;;;;5027591;28;20057;-78
2021/09/04 01:32:53;;;;;;;1.00;1.00;;;;;;;;;;5028777;28;20080;-78
2021/09/04 01:35:21;;;;;;;1.77;1.20;;;;;;;;;;5029468;28;20038;-78
2021/09/04 01:37:47;;;;;;;1.98;1.38;;;;;;;;;;5029482;28;20065;-78
2021/09/04 01:40:14;;;;;;;1.05;1.02;;;;;;;;;;5031038;28;20115;-78
2021/09/04 01:42:42;;;;;;;1.40;1.30;;;;;;;;;;5029234;28;20033;-78
2021/09/04 01:45:09;;;;;;;1.40;1.30;;;;;;;;;;5029609;28;20041;-78
2021/09/04 01:47:35;;;;;;;3.20;1.70;;;;;;;;;;5031930;28;20079;-78
2021/09/04 01:50:03;;;;;;;2.45;1.20;;;;;;;;;;5028283;28;20048;-78
2021/09/04 01:52:30;;;;;;;1.27;1.27;;;;;;;;;;5029675;28;20524;-78
2021/09/04 01:54:56;;;;;;;1.20;1.20;;;;;;;;;;5028736;28;20071;-78
2021/09/04 01:57:23;;;;;;;1.13;1.10;;;;;;;;;;5030335;28;20046;-78
2021/09/04 01:59:50;;;;;;;1.05;1.05;;;;;;;;;;5030015;28;20038;-78
2021/09/04 02:02:16;;;;;;;1.50;1.40;;;;;;;;;;5030042;28;20037;-78
2021/09/04 02:04:43;;;;;;;1.98;1.88;;;;;;;;;;5030062;28;20033;-78
2021/09/04 02:07:10;;;;;;;2.25;1.00;;;;;;;;;;5025078;28;20038;-78
2021/09/04 02:09:36;;;;;;;1.23;1.13;;;;;;;;;;5025762;28;20034;-78
2021/09/04 02:12:03;;;;;;;1.40;1.10;;;;;;;;;;5060791;28;20516;-78
2021/09/04 02:14:30;;;;;;;1.20;1.10;;;;;;;;;;5028645;28;20520;-78
2021/09/04 02:16:56;;;;;;;1.00;1.00;;;;;;;;;;5028042;28;20041;-78
2021/09/04 02:19:23;;;;;;;1.83;1.23;;;;;;;;;;5029871;28;20048;-78
2021/09/04 02:21:50;;;;;;;2.65;1.20;;;;;;;;;;5020950;28;20081;-78
2021/09/04 02:24:16;;;;;;;3.85;0.93;;;;;;;;;;5061916;28;20116;-78
2021/09/04 02:26:43;;;;;;;2.67;1.17;;;;;;;;;;5044564;28;20508;-78
2021/09/04 02:29:09;;;;;;;2.63;1.10;;;;;;;;;;5027661;28;20044;-78
2021/09/04 02:31:36;;;;;;;1.45;1.38;;;;;;;;;;5030123;28;20038;-78
2021/09/04 02:34:02;;;;;;;1.13;1.10;;;;;;;;;;5029341;28;20041;-78
2021/09/04 02:36:29;;;;;;;1.15;1.15;;;;;;;;;;5030161;28;20053;-78
2021/09/04 02:38:56;;;;;;;1.30;1.30;;;;;;;;;;5027353;28;20506;-78
2021/09/04 02:41:22;;;;;;;1.20;1.20;;;;;;;;;;5028098;28;20037;-78
2021/09/04 02:43:49;;;;;;;2.80;1.30;;;;;;;;;;5043893;28;20037;-78
2021/09/04 02:46:15;;;;;;;3.10;1.10;;;;;;;;;;5028191;28;20046;-78
2021/09/04 02:48:42;;;;;;;1.25;1.25;;;;;;;;;;5028520;28;20033;-78
2021/09/04 02:51:09;;;;;;;1.77;1.30;;;;;;;;;;5027845;28;20042;-78
2021/09/04 02:53:35;;;;;;;1.35;1.35;;;;;;;;;;5013075;28;20041;-78
2021/09/04 02:56:02;;;;;;;1.27;1.27;;;;;;;;;;5043492;28;20037;-78
2021/09/04 02:58:28;;;;;;;1.52;1.20;;;;;;;;;;5028466;28;20041;-78
2021/09/04 03:00:55;;;;;;;2.47;1.20;;;;;;;;;;5029510;28;20095;-78
2021/09/04 03:03:22;;;;;;;1.00;1.00;;;;;;;;;;5028205;28;20021;-78
2021/09/04 03:05:49;;;;;;;1.20;1.10;;;;;;;;;;5027718;28;20034;-78
2021/09/04 03:08:15;;;;;;;1.20;1.20;;;;;;;;;;5027775;28;20187;-78
2021/09/04 03:10:42;;;;;;;1.35;1.30;;;;;;;;;;5027260;28;20124;-78
2021/09/04 03:13:08;;;;;;;1.00;1.00;;;;;;;;;;5028703;28;20088;-78
2021/09/04 03:15:35;;;;;;;1.40;1.40;;;;;;;;;;5028300;28;20133;-78
2021/09/04 03:18:02;;;;;;;1.20;1.10;;;;;;;;;;5022532;28;20128;-78
2021/09/04 03:20:28;;;;;;;1.23;1.23;;;;;;;;;;5022827;28;20037;-78
2021/09/04 03:22:55;;;;;;;4.28;1.40;;;;;;;;;;5027960;28;20068;-78
2021/09/04 03:25:22;;;;;;;1.20;1.20;;;;;;;;;;5011397;28;20045;-78
2021/09/04 03:27:48;;;;;;;1.95;1.27;;;;;;;;;;5028401;28;20038;-78
2021/09/04 03:30:15;;;;;;;1.50;1.33;;;;;;;;;;5031537;28;20079;-78
2021/09/04 03:32:42;;;;;;;1.30;1.30;;;;;;;;;;5033717;28;20476;-78
2021/09/04 03:35:08;;;;;;;2.20;1.38;;;;;;;;;;5026764;28;20069;-78
2021/09/04 03:37:35;;;;;;;1.20;1.20;;;;;;;;;;5065171;28;20045;-78
2021/09/04 03:40:02;;;;;;;3.95;1.50;;;;;;;;;;5062388;28;20077;-78
2021/09/04 03:42:29;;;;;;;1.63;1.45;;;;;;;;;;5030660;28;20061;-78
2021/09/04 03:44:56;;;;;;;1.25;1.25;;;;;;;;;;5033200;28;20452;-78
2021/09/04 03:47:22;;;;;;;1.30;1.30;;;;;;;;;;5031742;28;20041;-78
2021/09/04 03:49:49;;;;;;;1.70;1.60;;;;;;;;;;5032795;28;20033;-78
2021/09/04 03:52:15;;;;;;;1.40;1.38;;;;;;;;;;5030163;28;20042;-78
2021/09/04 03:54:42;;;;;;;3.53;1.40;;;;;;;;;;5021315;28;20046;-78
2021/09/04 03:57:08;;;;;;;1.20;1.10;;;;;;;;;;5031890;28;20041;-78
2021/09/04 03:59:36;;;;;;;1.40;1.27;;;;;;;;;;5031838;28;20477;-78
2021/09/04 04:02:02;;;;;;;1.30;1.30;;;;;;;;;;5031142;28;20367;-78
2021/09/04 04:04:29;;;;;;;1.40;1.30;;;;;;;;;;5032640;28;20045;-78
2021/09/04 04:06:56;;;;;;;1.33;1.25;;;;;;;;;;5062342;28;20041;-78
2021/09/04 04:09:23;;;;;;;3.63;1.20;;;;;;;;;;5031443;28;20041;-78
2021/09/04 04:11:49;;;;;;;2.42;1.25;;;;;;;;;;5030478;28;20144;-78
2021/09/04 04:14:16;;;;;;;3.35;1.33;;;;;;;;;;5030295;28;20508;-78
2021/09/04 04:16:42;;;;;;;1.95;1.30;;;;;;;;;;5015457;28;20080;-78
2021/09/04 04:19:09;;;;;;;2.22;1.17;;;;;;;;;;5030659;28;20045;-78
2021/09/04 04:21:36;;;;;;;1.80;1.70;;;;;;;;;;5064012;28;20037;-78
2021/09/04 04:24:03;;;;;;;2.58;1.67;;;;;;;;;;5026696;28;20049;-78
2021/09/04 04:26:29;;;;;;;1.80;1.70;;;;;;;;;;5016222;28;20054;-78
2021/09/04 04:28:56;;;;;;;1.52;1.20;;;;;;;;;;5031702;28;20124;-78
2021/09/04 04:31:23;;;;;;;1.33;1.33;;;;;;;;;;5029499;28;20193;-78
2021/09/04 04:33:49;;;;;;;1.33;1.17;;;;;;;;;;5030742;28;20040;-78
2021/09/04 04:36:16;;;;;;;1.27;1.20;;;;;;;;;;5030022;28;20046;-78
2021/09/04 04:38:42;;;;;;;2.92;1.30;;;;;;;;;;5030481;28;20042;-78
2021/09/04 04:41:09;;;;;;;1.70;1.60;;;;;;;;;;5062513;28;20555;-78
2021/09/04 04:43:36;;;;;;;1.33;1.30;;;;;;;;;;5030288;28;20081;-78
2021/09/04 04:46:02;;;;;;;1.58;1.50;;;;;;;;;;5032094;28;20105;-78
2021/09/04 04:48:30;;;;;;;1.77;1.67;;;;;;;;;;5031755;28;20440;-78
2021/09/04 04:50:56;;;;;;;1.38;1.30;;;;;;;;;;5028776;28;20037;-78
2021/09/04 04:53:24;;;;;;;3.53;1.30;;;;;;;;;;5031034;28;20042;-78
2021/09/04 04:55:51;;;;;;;3.50;1.05;;;;;;;;;;5029458;28;20116;-78
2021/09/04 04:58:17;;;;;;;1.02;1.02;;;;;;;;;;5031316;28;20087;-78
2021/09/04 05:00:45;;;;;;;1.35;1.25;;;;;;;;;;5031604;28;20037;-78
2021/09/04 05:03:12;;;;;;;1.27;1.20;;;;;;;;;;5031198;28;20025;-78
2021/09/04 05:05:38;;;;;;;1.10;1.10;;;;;;;;;;5031237;28;20068;-78
2021/09/04 05:08:05;;;;;;;1.45;1.25;;;;;;;;;;5029042;28;20045;-78
2021/09/04 05:10:32;;;;;;;1.42;1.42;;;;;;;;;;5028836;28;20038;-78
2021/09/04 05:12:58;;;;;;;2.45;1.73;;;;;;;;;;5064374;28;20398;-78
2021/09/04 05:15:25;;;;;;;2.03;1.20;;;;;;;;;;5061359;28;20130;-78
2021/09/04 05:17:52;;;;;;;3.33;1.60;;;;;;;;;;5031750;28;20033;-78
2021/09/04 05:20:18;;;;;;;1.50;1.45;;;;;;;;;;5029232;28;20037;-78
2021/09/04 05:22:46;;;;;;;1.90;1.35;;;;;;;;;;5028468;28;20038;-78
2021/09/04 05:25:13;;;;;;;1.20;1.20;;;;;;;;;;5014161;28;20518;-78
2021/09/04 05:27:40;;;;;;;2.10;1.10;;;;;;;;;;5028979;28;20397;-78
2021/09/04 05:30:07;;;;;;;1.40;1.00;;;;;;;;;;5031645;28;20041;-78
2021/09/04 05:32:33;;;;;;;1.10;1.10;;;;;;;;;;5029992;28;20085;-78
2021/09/04 05:35:00;;;;;;;2.17;1.27;;;;;;;;;;5024886;28;20041;-78
2021/09/04 05:37:27;;;;;;;1.40;1.10;;;;;;;;;;5029446;28;20041;-78
2021/09/04 05:39:54;;;;;;;1.40;1.30;;;;;;;;;;5030398;28;20502;-78
2021/09/04 05:42:21;;;;;;;2.00;1.23;;;;;;;;;;5030563;28;20068;-78
2021/09/04 05:44:47;;;;;;;2.75;1.15;;;;;;;;;;5012393;28;20045;-78
2021/09/04 05:47:14;;;;;;;1.10;1.00;;;;;;;;;;5029772;28;20076;-78
2021/09/04 05:49:41;;;;;;;1.35;1.25;;;;;;;;;;5029943;28;20423;-78
2021/09/04 05:52:07;;;;;;;2.10;1.30;;;;;;;;;;5025749;28;20045;-78
2021/09/04 05:54:35;;;;;;;1.83;1.50;;;;;;;;;;5017099;28;20494;-78
2021/09/04 05:57:02;;;;;;;4.30;2.05;;;;;;;;;;5029374;28;20474;-78
2021/09/04 05:59:28;;;;;;;1.20;1.20;;;;;;;;;;5028061;28;20084;-78
2021/09/04 06:01:55;;;;;;;1.08;1.05;;;;;;;;;;5009518;28;20104;-78
2021/09/04 06:04:22;;;;;;;2.15;1.35;;;;;;;;;;5028667;28;20045;-78
2021/09/04 06:06:49;;;;;;;1.80;1.73;;;;;;;;;;5029973;28;20041;-78
2021/09/04 06:09:15;;;;;;;1.20;1.20;;;;;;;;;;5027616;28;20087;-78
2021/09/04 06:11:42;;;;;;;1.20;1.20;;;;;;;;;;5028036;28;20522;-78
2021/09/04 06:14:09;;;;;;;1.45;1.35;;;;;;;;;;5029012;28;21275;-78
2021/09/04 06:16:36;;;;;;;2.53;1.40;;;;;;;;;;5011937;28;20128;-78
2021/09/04 06:19:02;;;;;;;1.65;1.35;;;;;;;;;;5059828;28;20289;-78
2021/09/04 06:21:29;;;;;;;1.30;1.20;;;;;;;;;;5032121;28;20061;-78
2021/09/04 06:23:56;;;;;;;2.35;1.00;;;;;;;;;;5028571;28;20119;-78
2021/09/04 06:26:22;;;;;;;2.00;1.50;;;;;;;;;;5028923;28;20115;-78
2021/09/04 06:28:49;;;;;;;1.30;1.30;;;;;;;;;;5028583;28;20405;-78
2021/09/04 06:31:16;;;;;;;1.55;1.45;;;;;;;;;;5026697;28;20091;-79
2021/09/04 06:33:42;;;;;;;2.28;1.50;;;;;;;;;;5029783;28;20069;-78
2021/09/04 06:36:09;;;;;;;1.35;1.30;;;;;;;;;;5028276;28;20057;-78
2021/09/04 06:38:36;;;;;;;1.50;1.40;;;;;;;;;;5030064;28;20521;-78
2021/09/04 06:41:03;;;;;;;3.80;1.23;;;;;;;;;;5026120;28;20048;-78
2021/09/04 06:43:29;;;;;;;1.95;1.08;;;;;;;;;;5017188;28;20398;-78
2021/09/04 06:45:56;;;;;;;5.15;1.40;;;;;;;;;;5028801;28;20057;-78
2021/09/04 06:48:22;;;;;;;2.92;1.30;;;;;;;;;;5028382;28;20033;-78
2021/09/04 06:50:49;;;;;;;1.00;1.00;;;;;;;;;;5030101;28;20108;-78
2021/09/04 06:53:16;;;;;;;1.63;1.00;;;;;;;;;;5027256;28;20116;-78
2021/09/04 06:55:42;;;;;;;1.00;1.00;;;;;;;;;;5027309;28;20033;-78
2021/09/04 06:58:09;;;;;;;2.05;1.40;;;;;;;;;;5030538;28;20037;-78
2021/09/04 07:00:35;;;;;;;0.95;0.95;;;;;;;;;;5026640;28;20091;-78
2021/09/04 07:03:03;;;;;;;2.50;1.10;;;;;;;;;;5029184;28;20124;-78
2021/09/04 07:05:30;;;;;;;1.55;1.10;;;;;;;;;;5027014;28;20030;-78
2021/09/04 07:07:57;;;;;;;1.48;0.90;;;;;;;;;;5030251;28;20038;-78
2021/09/04 07:10:24;;;;;;;1.10;1.10;;;;;;;;;;5021439;28;20606;-78
2021/09/04 07:12:50;;;;;;;1.52;1.10;;;;;;;;;;5025591;28;20037;-78
2021/09/04 07:15:17;;;;;;;2.58;1.10;;;;;;;;;;5031093;28;20045;-78
2021/09/04 07:17:44;;;;;;;1.30;0.90;;;;;;;;;;5023768;28;20072;-78
2021/09/04 07:20:11;;;;;;;1.20;1.10;;;;;;;;;;5025917;28;20041;-78
2021/09/04 07:22:38;;;;;;;1.20;1.20;;;;;;;;;;5044982;28;20088;-78
2021/09/04 07:25:05;;;;;;;4.72;1.08;;;;;;;;;;5028652;28;20029;-78
2021/09/04 07:27:32;;;;;;;2.13;1.00;;;;;;;;;;5029063;28;20049;-78
2021/09/04 07:29:59;;;;;;;2.30;0.90;;;;;;;;;;5027695;28;20430;-78
2021/09/04 07:32:26;;;;;;;1.10;1.00;;;;;;;;;;5030333;28;20036;-78
2021/09/04 07:34:53;;;;;;;2.80;1.00;;;;;;;;;;5025752;28;20081;-78
2021/09/04 07:37:20;;;;;;;1.52;1.02;;;;;;;;;;5028891;28;20038;-78
2021/09/04 07:39:47;;;;;;;1.30;1.20;;;;;;;;;;5022924;28;20045;-78
2021/09/04 07:42:13;;;;;;;3.50;1.10;;;;;;;;;;5042297;28;20076;-78
2021/09/04 07:44:40;;;;;;;3.03;1.20;;;;;;;;;;5019450;28;20033;-78
2021/09/04 07:47:07;;;;;;;1.05;1.05;;;;;;;;;;5029154;28;20417;-78
2021/09/04 07:49:34;;;;;;;1.30;1.20;;;;;;;;;;5027071;28;20355;-78
2021/09/04 07:52:00;;;;;;;2.47;0.90;;;;;;;;;;5028148;28;20108;-78
2021/09/04 07:54:27;;;;;;;2.75;1.10;;;;;;;;;;5030118;28;20139;-78
2021/09/04 07:56:54;;;;;;;1.65;1.02;;;;;;;;;;5030652;28;20042;-78
2021/09/04 07:59:21;;;;;;;1.52;0.95;;;;;;;;;;5030087;28;20087;-78
2021/09/04 08:01:48;;;;;;;2.10;0.88;;;;;;;;;;5027102;28;20045;-78
2021/09/04 08:04:15;;;;;;;3.25;1.00;;;;;;;;;;5061252;28;20041;-78
2021/09/04 08:06:42;;;;;;;2.08;1.05;;;;;;;;;;5029218;28;20359;-78
2021/09/04 08:09:09;;;;;;;1.27;1.27;;;;;;;;;;5028663;28;20029;-78
2021/09/04 08:11:35;;;;;;;4.57;1.90;;;;;;;;;;5021230;28;20042;-78
2021/09/04 08:14:02;;;;;;;1.58;0.90;;;;;;;;;;5023708;28;20088;-78
2021/09/04 08:16:29;;;;;;;4.95;1.00;;;;;;;;;;5034009;28;20046;-78
2021/09/04 08:18:55;;;;;;;2.35;0.80;;;;;;;;;;5032073;28;20128;-78
2021/09/04 08:21:23;;;;;;;4.65;1.13;;;;;;;;;;5032523;28;20034;-78
2021/09/04 08:23:49;;;;;;;1.50;1.00;;;;;;;;;;5058161;28;20042;-78
2021/09/04 08:26:16;;;;;;;1.55;1.08;;;;;;;;;;5032008;28;20378;-78
2021/09/04 08:28:43;;;;;;;0.98;0.90;;;;;;;;;;5033620;28;20045;-78
2021/09/04 08:31:10;;;;;;;1.55;0.90;;;;;;;;;;5033262;28;20095;-78
2021/09/04 08:33:36;;;;;;;1.00;1.00;;;;;;;;;;5032757;28;20069;-78
2021/09/04 08:36:03;;;;;;;2.53;0.90;;;;;;;;;;5035294;28;20042;-78
2021/09/04 08:38:30;;;;;;;0.80;0.80;;;;;;;;;;5033982;28;20137;-78
2021/09/04 08:40:56;;;;;;;0.80;0.80;;;;;;;;;;5031694;28;20580;-79
2021/09/04 08:43:23;;;;;;;0.80;0.80;;;;;;;;;;5031882;28;20029;-79
2021/09/04 08:45:49;;;;;;;2.33;0.90;;;;;;;;;;5030532;28;20041;-79
2021/09/04 08:48:18;;;;;;;3.53;0.90;;;;;;;;;;5013661;28;20096;-78
2021/09/04 08:50:45;;;;;;;1.10;1.05;;;;;;;;;;5030965;28;20033;-78
2021/09/04 08:53:12;;;;;;;3.17;1.30;;;;;;;;;;5026349;28;20065;-78
2021/09/04 08:55:38;;;;;;;0.80;0.80;;;;;;;;;;5030626;28;20073;-78
2021/09/04 08:58:05;;;;;;;2.53;0.90;;;;;;;;;;5029722;28;20034;-78
2021/09/04 09:00:39;;;;;;;0.80;0.80;;;;;;;;;;5028192;28;20037;-79
2021/09/04 09:03:07;;;;;;;2.50;0.80;;;;;;;;;;5031907;28;20057;-77
2021/09/04 09:05:41;;;;;;;2.00;0.93;;;;;;;;;;5032228;28;20124;-77
2021/09/04 09:08:14;;;;;;;1.33;0.80;;;;;;;;;;5031684;28;20136;-77
2021/09/04 09:10:41;;;;;;;0.80;0.80;;;;;;;;;;5026263;28;20038;-77
2021/09/04 09:13:07;;;;;;;1.42;0.90;;;;;;;;;;5030055;28;20064;-77
2021/09/04 09:15:37;;;;;;;1.23;0.80;;;;;;;;;;5032568;28;20069;-77
2021/09/04 09:18:14;;;;;;;6.07;0.80;;;;;;;;;;5030418;28;20123;-77
2021/09/04 09:20:42;;;;;;;3.35;0.90;;;;;;;;;;5029015;28;20049;-77
2021/09/04 09:23:13;;;;;;;0.80;0.80;;;;;;;;;;5028574;28;20064;-77
2021/09/04 09:25:40;;;;;;;0.90;0.90;;;;;;;;;;5022141;28;20144;-77
2021/09/04 09:28:11;;;;;;;0.90;0.90;;;;;;;;;;5029744;28;20061;-77
2021/09/04 09:30:41;;;;;;;2.05;0.80;;;;;;;;;;5027798;28;20319;-77
2021/09/04 09:33:09;;;;;;;0.82;0.80;;;;;;;;;;5030026;28;20149;-77
2021/09/04 09:35:41;;;;;;;0.80;0.80;;;;;;;;;;5030847;28;20072;-77
2021/09/04 09:38:08;;;;;;;5.80;1.70;;;;;;;;;;5028606;28;20053;-77
2021/09/04 09:40:35;;;;;;;0.80;0.80;;;;;;;;;;5030051;28;20064;-77
2021/09/04 09:43:12;;;;;;;0.70;0.70;;;;;;;;;;5028814;28;20033;-77
2021/09/04 09:45:42;;;;;;;2.50;0.80;;;;;;;;;;5029591;28;20072;-77
2021/09/04 09:48:09;;;;;;;0.77;0.77;;;;;;;;;;5030081;28;20041;-77
2021/09/04 09:50:36;;;;;;;0.70;0.70;;;;;;;;;;5029203;28;20125;-77
2021/09/04 09:53:04;;;;;;;1.58;0.80;;;;;;;;;;5030186;28;20033;-77
2021/09/04 09:55:32;;;;;;;3.63;0.95;;;;;;;;;;5031213;28;20049;-77
2021/09/04 09:57:59;;;;;;;1.08;0.80;;;;;;;;;;5045080;28;20080;-77
2021/09/04 10:00:27;;;;;;;5.88;0.80;;;;;;;;;;5030607;28;20120;-77
2021/09/04 10:02:58;;;;;;;2.05;0.80;;;;;;;;;;5028823;28;20456;-77
2021/09/04 10:05:26;;;;;;;2.60;0.80;;;;;;;;;;5029929;28;20052;-77
2021/09/04 10:07:57;;;;;;;0.90;0.90;;;;;;;;;;5028441;28;20646;-77
2021/09/04 10:10:25;;;;;;;0.82;0.80;;;;;;;;;;5026824;28;20092;-77
2021/09/04 10:12:52;;;;;;;4.70;0.88;;;;;;;;;;5045200;28;20103;-77
2021/09/04 10:15:19;;;;;;;2.05;0.90;;;;;;;;;;5027844;28;20049;-77
2021/09/04 10:17:49;;;;;;;3.08;1.27;;;;;;;;;;5031090;28;20115;-77
2021/09/04 10:20:15;;;;;;;0.90;0.90;;;;;;;;;;5027029;28;20050;-77
2021/09/04 10:22:44;;;;;;;0.88;0.80;;;;;;;;;;5027010;28;20034;-77
2021/09/04 10:25:18;;;;;;;1.88;0.90;;;;;;;;;;5031208;28;20033;-77
2021/09/04 10:27:49;;;;;;;0.82;0.82;;;;;;;;;;5043892;28;20477;-77
2021/09/04 10:30:34;;;;;;;2.42;0.85;;;;;;;;;;5027479;28;20045;-77
2021/09/04 10:33:01;;;;;;;1.77;0.90;;;;;;;;;;5027075;28;20044;-77
2021/09/04 10:35:38;;;;;;;0.80;0.80;;;;;;;;;;5026123;28;20038;-77
2021/09/04 10:38:09;;;;;;;0.93;0.80;;;;;;;;;;5068033;28;20441;-77
2021/09/04 10:40:36;;;;;;;0.90;0.90;;;;;;;;;;5027374;28;20049;-77
2021/09/04 10:43:06;;;;;;;0.80;0.80;;;;;;;;;;5027925;28;20133;-77
2021/09/04 10:45:34;;;;;;;0.90;0.90;;;;;;;;;;5025307;28;20060;-77
2021/09/04 10:48:12;;;;;;;1.25;0.90;;;;;;;;;;5027743;28;20125;-77
2021/09/04 10:50:38;;;;;;;1.10;1.00;;;;;;;;;;5023508;28;20030;-77
2021/09/04 10:53:07;;;;;;;0.77;0.77;;;;;;;;;;5060565;28;20059;-77
2021/09/04 10:55:33;;;;;;;1.27;0.90;;;;;;;;;;5029283;28;20075;-77
2021/09/04 10:58:08;;;;;;;0.90;0.90;;;;;;;;;;5027849;28;20079;-77
2021/09/04 11:00:36;;;;;;;1.27;0.80;;;;;;;;;;5025059;28;20045;-77
2021/09/04 11:03:05;;;;;;;1.00;1.00;;;;;;;;;;5028404;28;20055;-77
2021/09/04 11:05:38;;;;;;;0.73;0.73;;;;;;;;;;5030713;28;20103;-77
2021/09/04 11:08:07;;;;;;;0.80;0.80;;;;;;;;;;5026895;28;20084;-77
2021/09/04 11:10:36;;;;;;;0.80;0.80;;;;;;;;;;5019929;28;20524;-77
2021/09/04 11:13:07;;;;;;;0.70;0.70;;;;;;;;;;5061699;28;20539;-77
2021/09/04 11:15:33;;;;;;;2.33;0.80;;;;;;;;;;5027392;28;20049;-77
2021/09/04 11:18:00;;;;;;;0.80;0.80;;;;;;;;;;5030860;28;20038;-77
2021/09/04 11:20:28;;;;;;;0.70;0.70;;;;;;;;;;5026766;28;20083;-77
2021/09/04 11:22:54;;;;;;;0.70;0.70;;;;;;;;;;5029350;28;20045;-77
2021/09/04 11:25:21;;;;;;;1.02;1.02;;;;;;;;;;5028088;28;20333;-77
2021/09/04 11:27:48;;;;;;;0.70;0.70;;;;;;;;;;5020328;28;20393;-77
2021/09/04 11:30:16;;;;;;;0.73;0.73;;;;;;;;;;5029753;28;20033;-77
2021/09/04 11:32:43;;;;;;;2.50;1.75;;;;;;;;;;5026777;28;20501;-77
2021/09/04 11:35:10;;;;;;;0.68;0.68;;;;;;;;;;5027663;28;20088;-77
2021/09/04 11:37:38;;;;;;;0.70;0.70;;;;;;;;;;5036537;28;20045;-77
2021/09/04 11:40:09;;;;;;;0.73;0.73;;;;;;;;;;5025087;28;20072;-77
2021/09/04 11:42:40;;;;;;;0.70;0.70;;;;;;;;;;5028936;28;20072;-77
2021/09/04 11:45:07;;;;;;;0.70;0.70;;;;;;;;;;5028257;28;20037;-77
2021/09/04 11:47:35;;;;;;;0.70;0.70;;;;;;;;;;5028020;28;20513;-77
2021/09/04 11:50:04;;;;;;;0.60;0.60;;;;;;;;;;5027876;28;20033;-77
2021/09/04 11:52:34;;;;;;;0.70;0.70;;;;;;;;;;5028851;28;20055;-77
2021/09/04 11:55:03;;;;;;;0.70;0.70;;;;;;;;;;5017778;28;20136;-77
2021/09/04 11:57:31;;;;;;;0.70;0.70;;;;;;;;;;5031241;28;20046;-77
2021/09/04 12:00:00;;;;;;;0.70;0.70;;;;;;;;;;5031477;28;20033;-77
2021/09/04 12:02:28;;;;;;;0.75;0.70;;;;;;;;;;5031894;28;20445;-77
2021/09/04 12:04:55;;;;;;;0.77;0.70;;;;;;;;;;5030813;28;20033;-77
2021/09/04 12:07:27;;;;;;;0.70;0.70;;;;;;;;;;5031674;28;20091;-77
2021/09/04 12:09:54;;;;;;;0.70;0.70;;;;;;;;;;5027389;28;20104;-77
2021/09/04 12:12:25;;;;;;;0.70;0.70;;;;;;;;;;5021469;28;20486;-77
2021/09/04 12:14:52;;;;;;;0.90;0.90;;;;;;;;;;5034144;28;20075;-77
2021/09/04 12:17:19;;;;;;;0.70;0.70;;;;;;;;;;5030089;28;20112;-77
2021/09/04 12:19:46;;;;;;;0.68;0.68;;;;;;;;;;5028477;28;20446;-77
2021/09/04 12:22:12;;;;;;;1.30;0.70;;;;;;;;;;5030538;28;20041;-77
2021/09/04 12:24:39;;;;;;;0.60;0.60;;;;;;;;;;5030361;28;20405;-77
2021/09/04 12:27:06;;;;;;;0.60;0.60;;;;;;;;;;5026295;28;20132;-77
2021/09/04 12:29:33;;;;;;;0.60;0.60;;;;;;;;;;5031488;28;20033;-77
2021/09/04 12:32:11;;;;;;;0.70;0.70;;;;;;;;;;5030274;28;20119;-77
2021/09/04 12:34:38;;;;;;;0.80;0.70;;;;;;;;;;5033279;28;20528;-77
2021/09/04 12:37:24;;;;;;;2.15;0.70;;;;;;;;;;5028600;28;20041;-79
2021/09/04 12:39:51;;;;;;;2.40;0.60;;;;;;;;;;5018331;28;20293;-79
2021/09/04 12:42:17;;;;;;;0.60;0.60;;;;;;;;;;5030171;28;20493;-79
2021/09/04 12:44:45;;;;;;;1.08;0.70;;;;;;;;;;5030959;28;20025;-79
2021/09/04 12:47:13;;;;;;;0.70;0.65;;;;;;;;;;5030871;28;20429;-79
2021/09/04 12:49:49;;;;;;;0.60;0.60;;;;;;;;;;5027024;28;20523;-79
2021/09/04 12:52:30;;;;;;;0.60;0.60;;;;;;;;;;5029108;28;20506;-79
2021/09/04 12:54:58;;;;;;;1.35;0.65;;;;;;;;;;5031412;28;20034;-79
2021/09/04 12:57:25;;;;;;;0.70;0.70;;;;;;;;;;5028021;28;20554;-79
2021/09/04 12:59:54;;;;;;;0.60;0.60;;;;;;;;;;5030055;28;20087;-79
2021/09/04 13:02:22;;;;;;;0.52;0.52;;;;;;;;;;5044837;28;20501;-77
2021/09/04 13:04:54;;;;;;;1.23;0.60;;;;;;;;;;5030109;28;20037;-77
2021/09/04 13:07:20;;;;;;;0.70;0.70;;;;;;;;;;5039969;28;20050;-77
2021/09/04 13:09:47;;;;;;;0.77;0.70;;;;;;;;;;5026948;28;20069;-77
2021/09/04 13:12:14;;;;;;;0.70;0.70;;;;;;;;;;5015299;28;20042;-77
2021/09/04 13:14:42;;;;;;;0.70;0.70;;;;;;;;;;5028461;28;20044;-77
2021/09/04 13:17:09;;;;;;;0.63;0.60;;;;;;;;;;5030614;28;20049;-77
2021/09/04 13:19:36;;;;;;;2.67;0.70;;;;;;;;;;5022111;28;20073;-77
2021/09/04 13:22:02;;;;;;;0.77;0.70;;;;;;;;;;5030123;28;20037;-77
2021/09/04 13:24:29;;;;;;;1.35;0.68;;;;;;;;;;5028559;28;20050;-77
2021/09/04 13:26:56;;;;;;;0.60;0.60;;;;;;;;;;5032046;28;20087;-77
2021/09/04 13:29:22;;;;;;;0.63;0.63;;;;;;;;;;5028222;28;20029;-77
2021/09/04 13:31:49;;;;;;;0.65;0.65;;;;;;;;;;5030969;28;20037;-77
2021/09/04 13:34:17;;;;;;;0.70;0.70;;;;;;;;;;5025744;28;20148;-77
2021/09/04 13:36:43;;;;;;;1.67;0.60;;;;;;;;;;5021177;28;20038;-77
2021/09/04 13:39:11;;;;;;;0.65;0.65;;;;;;;;;;5031258;28;20056;-77
2021/09/04 13:41:37;;;;;;;0.70;0.70;;;;;;;;;;5028869;28;20038;-77
2021/09/04 13:44:04;;;;;;;0.65;0.65;;;;;;;;;;5031111;28;20044;-77
2021/09/04 13:46:32;;;;;;;0.70;0.70;;;;;;;;;;5027356;28;20087;-77
2021/09/04 13:48:59;;;;;;;1.67;0.70;;;;;;;;;;5030223;28;20111;-78
2021/09/04 13:51:26;;;;;;;2.05;0.80;;;;;;;;;;5028938;28;20049;-79
2021/09/04 13:53:53;;;;;;;0.70;0.70;;;;;;;;;;5024672;28;20117;-79
2021/09/04 13:56:20;;;;;;;0.70;0.70;;;;;;;;;;5026365;28;20038;-79
2021/09/04 13:58:46;;;;;;;0.80;0.80;;;;;;;;;;5029562;28;20038;-79
2021/09/04 14:01:13;;;;;;;0.80;0.80;;;;;;;;;;5022373;28;20073;-79
2021/09/04 14:03:39;;;;;;;0.80;0.80;;;;;;;;;;5030399;28;20092;-79
2021/09/04 14:06:06;;;;;;;0.80;0.80;;;;;;;;;;5027986;28;20088;-79
2021/09/04 14:08:33;;;;;;;1.77;0.88;;;;;;;;;;5029537;28;20041;-79
2021/09/04 14:11:00;;;;;;;0.80;0.80;;;;;;;;;;5024904;28;20144;-79
2021/09/04 14:13:27;;;;;;;1.58;0.93;;;;;;;;;;5029669;28;20044;-79
2021/09/04 14:15:53;;;;;;;8.57;0.90;;;;;;;;;;5028468;28;20060;-79
2021/09/04 14:18:20;;;;;;;0.70;0.70;;;;;;;;;;5028089;28;20037;-79
2021/09/04 14:20:47;;;;;;;0.70;0.70;;;;;;;;;;5030002;28;20037;-79
2021/09/04 14:23:13;;;;;;;0.85;0.80;;;;;;;;;;5027115;28;20382;-79
2021/09/04 14:25:40;;;;;;;0.80;0.80;;;;;;;;;;5024701;28;20029;-78
2021/09/04 14:28:07;;;;;;;2.25;1.13;;;;;;;;;;5018891;28;20049;-78
2021/09/04 14:30:34;;;;;;;1.02;0.90;;;;;;;;;;5023780;28;20037;-78
2021/09/04 14:33:01;;;;;;;0.90;0.90;;;;;;;;;;5029043;28;20136;-78
2021/09/04 14:35:27;;;;;;;1.63;0.90;;;;;;;;;;5028013;28;20099;-78
2021/09/04 14:37:58;;;;;;;1.25;0.90;;;;;;;;;;5022109;28;20057;-78
2021/09/04 14:40:28;;;;;;;0.98;0.90;;;;;;;;;;5038376;28;20045;-78
2021/09/04 14:42:56;;;;;;;1.23;0.90;;;;;;;;;;5028743;28;20045;-78
2021/09/04 14:45:22;;;;;;;1.00;1.00;;;;;;;;;;5025871;28;20381;-78